Time;durP1;ratioP1;P1;durP2;ratioP2;P2;SDS_P1;SDS_P2;PMS_P1;PMS_P2;Temp;Humidity;BMP_temperature;BMP_pressure;BME280_temperature;BME280_humidity;BME280_pressure;Samples;Min_cycle;Max_cycle;Signal;HPM_P1;HPM_P2
2021/10/10 00:01:23;;;;;;;13.95;6.22;;;;;;;12.67;39.79;101237.06;4361090;32;34397;-85
2021/10/10 00:03:52;;;;;;;14.45;6.28;;;;;;;12.79;39.36;101229.91;4349037;32;33530;-85
2021/10/10 00:06:19;;;;;;;14.65;6.00;;;;;;;12.80;40.12;101231.62;4347950;32;34515;-85
2021/10/10 00:08:47;;;;;;;14.32;5.95;;;;;;;12.75;39.66;101231.72;4349211;32;33509;-85
2021/10/10 00:11:18;;;;;;;16.45;6.30;;;;;;;13.00;38.78;101234.78;4348964;32;33223;-85
2021/10/10 00:13:45;;;;;;;12.05;6.00;;;;;;;12.96;39.14;101227.00;4348978;32;33041;-84
2021/10/10 00:16:13;;;;;;;15.02;6.37;;;;;;;12.77;39.95;101227.31;4348803;32;33141;-85
2021/10/10 00:18:41;;;;;;;12.20;5.70;;;;;;;12.61;40.88;101231.94;4361361;32;33491;-84
2021/10/10 00:21:09;;;;;;;13.52;7.00;;;;;;;12.89;41.66;101228.88;4349010;32;33820;-85
2021/10/10 00:23:37;;;;;;;17.17;6.70;;;;;;;12.55;43.24;101225.94;4368217;32;33287;-85
2021/10/10 00:26:07;;;;;;;15.52;6.53;;;;;;;12.97;42.39;101228.75;4369591;32;33842;-84
2021/10/10 00:28:34;;;;;;;13.73;6.60;;;;;;;12.80;43.70;101229.03;4349694;32;33666;-85
2021/10/10 00:31:02;;;;;;;14.65;6.93;;;;;;;12.95;43.64;101228.78;4349029;32;33376;-85
2021/10/10 00:33:30;;;;;;;13.85;7.25;;;;;;;12.71;44.15;101232.66;4360537;32;33542;-86
2021/10/10 00:35:58;;;;;;;12.88;6.40;;;;;;;12.64;45.83;101234.53;4348720;32;33080;-86
2021/10/10 00:38:26;;;;;;;14.87;6.93;;;;;;;12.64;46.15;101233.63;4348639;32;32276;-86
2021/10/10 00:40:54;;;;;;;15.05;6.65;;;;;;;12.66;46.04;101232.72;4361017;32;33844;-84
2021/10/10 00:43:22;;;;;;;14.02;7.25;;;;;;;12.76;46.46;101229.97;4360948;32;31917;-84
2021/10/10 00:45:51;;;;;;;18.08;6.62;;;;;;;12.50;47.29;101231.25;4360760;32;34354;-86
2021/10/10 00:48:23;;;;;;;16.75;6.78;;;;;;;12.26;47.33;101230.72;4361414;32;33032;-85
2021/10/10 00:50:50;;;;;;;13.65;6.85;;;;;;;12.62;48.31;101228.44;4361067;32;33371;-85
2021/10/10 00:53:19;;;;;;;14.75;6.82;;;;;;;12.34;47.60;101231.47;4348676;32;32590;-85
2021/10/10 00:55:52;;;;;;;14.77;7.72;;;;;;;12.56;48.20;101223.28;4348924;32;33165;-85
2021/10/10 00:58:23;;;;;;;15.25;7.10;;;;;;;12.46;50.21;101219.13;4361518;32;34184;-86
2021/10/10 01:00:52;;;;;;;16.75;7.30;;;;;;;12.35;49.98;101209.69;4360654;32;32978;-84
2021/10/10 01:03:23;;;;;;;12.98;7.18;;;;;;;12.43;50.23;101209.56;4348393;32;33071;-85
2021/10/10 01:05:51;;;;;;;16.67;7.30;;;;;;;12.10;49.86;101209.16;4348447;32;32649;-84
2021/10/10 01:08:21;;;;;;;13.87;6.97;;;;;;;12.02;50.71;101201.44;4360884;32;34514;-85
2021/10/10 01:10:50;;;;;;;16.80;7.55;;;;;;;11.90;50.75;101187.62;4348658;32;32332;-84
2021/10/10 01:13:19;;;;;;;16.40;7.55;;;;;;;11.73;51.53;101193.94;4360465;32;32796;-85
2021/10/10 01:15:50;;;;;;;19.02;7.32;;;;;;;11.64;52.49;101199.28;4360651;32;32256;-85
2021/10/10 01:18:22;;;;;;;15.90;7.10;;;;;;;11.87;51.83;101183.31;4349705;32;32575;-84
2021/10/10 01:20:51;;;;;;;15.05;8.57;;;;;;;12.05;50.76;101186.59;4350041;32;33712;-84
2021/10/10 01:23:20;;;;;;;19.15;7.68;;;;;;;11.48;52.00;101189.00;4362597;32;33475;-85
2021/10/10 01:25:49;;;;;;;15.68;7.85;;;;;;;11.52;52.45;101195.91;4362563;32;32696;-86
2021/10/10 01:28:18;;;;;;;15.27;8.20;;;;;;;11.23;53.89;101182.34;4350079;32;33777;-86
2021/10/10 01:30:45;;;;;;;15.40;8.30;;;;;;;11.13;54.63;101182.44;4349831;32;33839;-85
2021/10/10 01:33:14;;;;;;;15.85;7.43;;;;;;;11.10;54.63;101179.87;4362575;32;32387;-85
2021/10/10 01:35:43;;;;;;;17.08;8.25;;;;;;;11.21;54.58;101200.63;4350504;32;33760;-84
2021/10/10 01:38:16;;;;;;;14.23;7.82;;;;;;;11.55;53.84;101195.00;4350012;32;34077;-85
2021/10/10 01:40:46;;;;;;;14.32;7.45;;;;;;;11.33;52.23;101190.03;4362200;32;32454;-85
2021/10/10 01:43:14;;;;;;;16.42;7.57;;;;;;;11.20;54.98;101199.75;4362314;32;33166;-85
2021/10/10 01:45:41;;;;;;;14.95;7.55;;;;;;;10.95;55.76;101203.47;4362523;32;32561;-86
2021/10/10 01:48:10;;;;;;;15.52;7.97;;;;;;;10.97;55.84;101207.78;4349972;32;32645;-84
2021/10/10 01:50:38;;;;;;;15.23;7.45;;;;;;;11.15;56.48;101198.91;4350157;32;34276;-85
2021/10/10 01:53:06;;;;;;;17.85;8.60;;;;;;;11.14;56.75;101199.81;4350124;32;32332;-85
2021/10/10 01:55:35;;;;;;;15.15;8.27;;;;;;;11.23;56.56;101192.78;4349890;32;33253;-85
2021/10/10 01:58:03;;;;;;;15.40;8.43;;;;;;;10.96;57.98;101200.84;4362150;32;34446;-84
2021/10/10 02:00:33;;;;;;;15.50;7.93;;;;;;;10.83;59.22;101194.88;4349978;32;32328;-85
2021/10/10 02:03:01;;;;;;;15.18;7.87;;;;;;;10.56;60.05;101195.97;4362201;32;32361;-84
2021/10/10 02:05:31;;;;;;;17.90;8.45;;;;;;;10.97;58.84;101199.97;4349739;32;32681;-85
2021/10/10 02:07:59;;;;;;;15.88;7.40;;;;;;;10.79;58.78;101206.19;4362300;32;34196;-86
2021/10/10 02:10:28;;;;;;;16.87;8.23;;;;;;;10.81;58.23;101201.84;4362292;32;34119;-84
2021/10/10 02:12:56;;;;;;;15.00;7.90;;;;;;;10.74;58.42;101200.16;4349816;32;32784;-86
2021/10/10 02:15:23;;;;;;;12.37;7.28;;;;;;;10.85;58.11;101197.50;4361868;32;33937;-85
2021/10/10 02:17:51;;;;;;;17.50;7.80;;;;;;;10.86;58.37;101197.47;4362072;32;33161;-84
2021/10/10 02:20:19;;;;;;;15.90;8.23;;;;;;;10.98;57.00;101187.78;4362069;32;33830;-85
2021/10/10 02:22:47;;;;;;;17.60;8.25;;;;;;;10.72;58.56;101194.13;4362184;32;32413;-85
2021/10/10 02:25:16;;;;;;;18.83;8.27;;;;;;;10.41;59.89;101196.06;4349572;32;33566;-85
2021/10/10 02:27:45;;;;;;;13.75;7.90;;;;;;;10.83;58.26;101197.47;4349461;32;32481;-86
2021/10/10 02:30:13;;;;;;;13.52;8.05;;;;;;;10.83;57.91;101197.47;4361465;32;33244;-85
2021/10/10 02:32:41;;;;;;;17.08;8.20;;;;;;;10.77;58.32;101205.38;4362102;32;32626;-86
2021/10/10 02:35:11;;;;;;;16.77;8.00;;;;;;;10.80;57.90;101207.09;4349562;32;33011;-85
2021/10/10 02:37:38;;;;;;;18.95;7.85;;;;;;;10.26;60.48;101202.22;4362096;32;34734;-85
2021/10/10 02:40:09;;;;;;;16.83;7.80;;;;;;;10.29;58.86;101203.09;4349166;32;33081;-85
2021/10/10 02:42:36;;;;;;;14.15;8.05;;;;;;;10.40;58.36;101202.16;4361216;32;32313;-85
2021/10/10 02:45:06;;;;;;;14.02;7.62;;;;;;;10.54;59.02;101192.50;4362265;32;33559;-85
2021/10/10 02:47:34;;;;;;;15.50;8.45;;;;;;;10.28;59.12;101198.75;4361515;32;32794;-85
2021/10/10 02:50:04;;;;;;;15.00;7.75;;;;;;;10.49;59.05;101187.34;4361967;32;34828;-86
2021/10/10 02:52:31;;;;;;;15.48;7.37;;;;;;;10.60;57.99;101194.22;4361899;32;34061;-85
2021/10/10 02:55:01;;;;;;;16.27;7.68;;;;;;;10.61;58.76;101185.50;4349238;32;33612;-85
2021/10/10 02:57:29;;;;;;;16.23;8.13;;;;;;;10.45;59.02;101182.16;4361621;32;32627;-85
2021/10/10 02:59:57;;;;;;;14.65;8.10;;;;;;;10.56;59.73;101187.31;4350016;32;34468;-84
2021/10/10 03:02:25;;;;;;;15.95;7.37;;;;;;;10.14;61.28;101183.19;4349667;32;32548;-84
2021/10/10 03:04:53;;;;;;;12.75;7.35;;;;;;;10.11;61.13;101188.41;4375440;32;33750;-84
2021/10/10 03:07:22;;;;;;;16.65;7.45;;;;;;;10.04;61.91;101189.34;4361688;32;33966;-84
2021/10/10 03:09:51;;;;;;;14.68;7.30;;;;;;;9.89;61.48;101186.81;4361965;32;34810;-85
2021/10/10 03:12:18;;;;;;;16.85;8.18;;;;;;;9.96;61.58;101183.31;4361575;32;33381;-86
2021/10/10 03:14:47;;;;;;;15.65;7.90;;;;;;;10.10;61.11;101180.62;4337033;32;34306;-84
2021/10/10 03:17:16;;;;;;;18.10;8.10;;;;;;;9.92;62.72;101181.56;4349445;32;33300;-85
2021/10/10 03:19:43;;;;;;;18.75;8.07;;;;;;;9.83;62.76;101172.09;4362391;32;33972;-85
2021/10/10 03:22:10;;;;;;;15.00;7.87;;;;;;;10.12;60.78;101173.69;4349795;32;33502;-85
2021/10/10 03:24:39;;;;;;;14.95;8.02;;;;;;;10.16;60.34;101175.38;4349929;32;33965;-84
2021/10/10 03:27:08;;;;;;;14.75;7.47;;;;;;;10.35;57.92;101174.41;4349895;32;32506;-83
2021/10/10 03:29:35;;;;;;;13.60;7.45;;;;;;;10.28;59.48;101166.63;4364055;32;34409;-84
2021/10/10 03:32:04;;;;;;;13.88;7.60;;;;;;;10.03;60.47;101177.19;4365599;32;34024;-84
2021/10/10 03:34:32;;;;;;;17.27;8.43;;;;;;;9.91;61.26;101177.25;4350806;32;33480;-84
2021/10/10 03:37:00;;;;;;;16.27;7.78;;;;;;;10.27;60.77;101183.13;4337384;32;33992;-84
2021/10/10 03:39:29;;;;;;;14.40;8.73;;;;;;;10.33;59.65;101173.53;4349397;32;32388;-84
2021/10/10 03:41:56;;;;;;;15.05;8.05;;;;;;;10.07;61.44;101178.91;4349304;32;32882;-84
2021/10/10 03:44:24;;;;;;;14.50;8.48;;;;;;;9.99;61.80;101168.53;4349197;32;32515;-85
2021/10/10 03:46:52;;;;;;;15.82;7.85;;;;;;;10.04;61.29;101176.31;4348713;32;33802;-84
2021/10/10 03:49:20;;;;;;;15.50;8.00;;;;;;;10.03;60.34;101178.03;4349151;32;32635;-84
2021/10/10 03:51:47;;;;;;;16.83;8.35;;;;;;;10.08;61.33;101183.25;4349203;32;33190;-85
2021/10/10 03:56:51;;;;;;;18.10;8.40;;;;;;;10.04;61.54;101171.12;4362262;32;34233;-84
2021/10/10 03:59:23;;;;;;;14.45;7.80;;;;;;;9.95;61.29;101168.56;4361751;32;33585;-84
2021/10/10 04:01:51;;;;;;;16.08;8.05;;;;;;;9.88;61.81;101169.44;4349056;32;31721;-83
2021/10/10 04:04:20;;;;;;;16.15;7.97;;;;;;;9.75;62.76;101169.53;4349027;32;32956;-83
2021/10/10 04:06:48;;;;;;;17.17;8.38;;;;;;;9.85;62.48;101162.50;4348624;32;33495;-85
2021/10/10 04:09:16;;;;;;;13.60;8.07;;;;;;;10.16;61.07;101160.59;4349180;32;32882;-85
2021/10/10 04:11:44;;;;;;;16.00;8.15;;;;;;;10.14;60.91;101159.75;4360692;32;32895;-84
2021/10/10 04:14:12;;;;;;;19.40;8.50;;;;;;;10.06;61.58;101161.53;4349038;32;32704;-86
2021/10/10 04:16:39;;;;;;;16.58;8.45;;;;;;;9.92;62.16;101163.34;4361251;32;35045;-85
2021/10/10 04:19:07;;;;;;;15.35;7.78;;;;;;;9.35;63.81;101165.34;4360988;32;34220;-86
2021/10/10 04:21:35;;;;;;;16.85;8.52;;;;;;;10.03;61.82;101166.78;4361443;32;32865;-85
2021/10/10 04:24:03;;;;;;;14.23;7.15;;;;;;;10.29;60.58;101169.22;4348765;32;33281;-85
2021/10/10 04:26:32;;;;;;;14.35;7.50;;;;;;;9.81;62.09;101168.63;4373414;32;34011;-85
2021/10/10 04:28:59;;;;;;;15.70;9.50;;;;;;;9.95;61.42;101168.56;4361299;32;33588;-85
2021/10/10 04:31:27;;;;;;;15.38;8.25;;;;;;;9.90;62.15;101178.12;4336838;32;32899;-84
2021/10/10 04:33:56;;;;;;;13.23;7.90;;;;;;;10.15;60.53;101174.50;4361098;32;34891;-85
2021/10/10 04:36:24;;;;;;;15.55;7.87;;;;;;;10.55;58.92;101168.19;4348842;32;33760;-85
2021/10/10 04:38:52;;;;;;;13.15;7.80;;;;;;;10.36;59.65;101165.72;4361267;32;34801;-85
2021/10/10 04:41:21;;;;;;;14.90;8.80;;;;;;;10.63;58.55;101168.97;4361468;32;33377;-85
2021/10/10 04:43:48;;;;;;;16.95;7.78;;;;;;;10.41;58.96;101160.47;4361057;32;34595;-85
2021/10/10 04:46:16;;;;;;;18.80;8.50;;;;;;;10.60;58.50;101157.72;4360780;32;33380;-84
2021/10/10 04:48:44;;;;;;;14.05;7.85;;;;;;;10.18;60.98;101165.81;4361250;32;34510;-85
2021/10/10 04:51:12;;;;;;;16.33;7.75;;;;;;;10.26;60.92;101158.78;4348070;32;33229;-84
2021/10/10 04:53:40;;;;;;;16.75;7.03;;;;;;;10.42;59.16;101161.34;4360939;32;34122;-85
2021/10/10 04:56:08;;;;;;;15.68;7.70;;;;;;;10.58;56.67;101147.28;4361556;32;34234;-85
2021/10/10 04:58:35;;;;;;;13.62;7.90;;;;;;;10.60;55.88;101145.56;4348665;32;33552;-86
2021/10/10 05:01:03;;;;;;;16.87;8.00;;;;;;;10.62;55.88;101151.63;4360984;32;34187;-85
2021/10/10 05:03:31;;;;;;;17.50;8.82;;;;;;;10.34;57.41;101153.53;4360170;32;33695;-85
2021/10/10 05:05:58;;;;;;;13.98;8.32;;;;;;;10.36;58.40;101155.28;4373296;32;34837;-85
2021/10/10 05:08:27;;;;;;;19.50;8.50;;;;;;;10.76;56.94;101145.44;4347816;32;33518;-85
2021/10/10 05:10:56;;;;;;;14.15;8.27;;;;;;;10.64;57.12;101155.06;4348675;32;33552;-85
2021/10/10 05:13:24;;;;;;;15.70;8.48;;;;;;;10.52;56.99;101147.38;4360926;32;34320;-85
2021/10/10 05:15:52;;;;;;;15.73;8.15;;;;;;;10.60;57.46;101145.56;4360775;32;34489;-86
2021/10/10 05:18:20;;;;;;;15.63;8.65;;;;;;;10.69;56.65;101160.25;4348358;32;34121;-86
2021/10/10 05:20:48;;;;;;;16.77;8.23;;;;;;;10.26;59.25;101161.41;4348581;32;32486;-85
2021/10/10 05:23:16;;;;;;;17.87;8.35;;;;;;;10.15;59.19;101158.03;4348616;32;32848;-85
2021/10/10 05:25:43;;;;;;;14.63;8.13;;;;;;;10.59;57.75;101162.06;4360537;32;34924;-86
2021/10/10 05:28:11;;;;;;;15.75;8.88;;;;;;;10.49;57.27;101148.25;4348115;32;32820;-86
2021/10/10 05:30:39;;;;;;;17.60;8.90;;;;;;;10.41;58.21;101151.78;4360554;32;33299;-86
2021/10/10 05:33:09;;;;;;;15.48;7.72;;;;;;;10.60;57.87;101160.34;4372454;32;33574;-86
2021/10/10 05:35:36;;;;;;;16.10;8.25;;;;;;;10.56;58.65;101159.50;4347912;32;32814;-86
2021/10/10 05:38:04;;;;;;;21.42;9.25;;;;;;;10.84;56.89;101161.84;4347996;32;34316;-86
2021/10/10 05:40:33;;;;;;;16.48;8.05;;;;;;;10.72;56.47;101164.59;4360628;32;33869;-85
2021/10/10 05:43:04;;;;;;;17.40;9.02;;;;;;;10.47;57.98;101159.56;4360383;32;34590;-85
2021/10/10 05:45:34;;;;;;;17.35;8.30;;;;;;;10.27;59.15;101162.28;4360292;32;34915;-85
2021/10/10 05:48:02;;;;;;;16.92;8.32;;;;;;;10.55;58.15;101162.97;4359754;32;33898;-85
2021/10/10 05:50:30;;;;;;;15.93;8.20;;;;;;;10.72;54.78;101161.97;4360229;32;33887;-86
2021/10/10 05:53:06;;;;;;;14.27;8.73;;;;;;;10.38;56.50;101154.41;4360244;32;34312;-86
2021/10/10 05:55:40;;;;;;;15.10;7.87;;;;;;;10.42;58.09;101161.34;4347589;32;33196;-85
2021/10/10 05:58:16;;;;;;;15.80;7.97;;;;;;;10.44;58.54;101163.06;4360009;32;34447;-86
2021/10/10 06:00:44;;;;;;;13.32;8.38;;;;;;;10.15;59.56;101164.09;4347484;32;32314;-85
2021/10/10 06:03:12;;;;;;;15.52;8.23;;;;;;;10.29;58.67;101165.72;4360440;32;34265;-86
2021/10/10 06:05:40;;;;;;;16.10;8.25;;;;;;;10.53;57.19;101155.16;4349930;32;32816;-86
2021/10/10 06:08:08;;;;;;;13.80;7.65;;;;;;;10.67;55.81;101162.84;4349892;32;34379;-86
2021/10/10 06:10:37;;;;;;;16.83;8.70;;;;;;;10.94;55.03;101165.22;4362322;32;33299;-86
2021/10/10 06:13:09;;;;;;;17.08;8.90;;;;;;;10.95;54.51;101146.09;4362173;32;34264;-85
2021/10/10 06:15:38;;;;;;;18.87;8.48;;;;;;;10.68;55.26;101148.94;4362244;32;34211;-86
2021/10/10 06:18:08;;;;;;;15.98;9.10;;;;;;;10.69;54.75;101155.03;4361974;32;33792;-85
2021/10/10 06:20:36;;;;;;;15.40;8.35;;;;;;;10.18;56.68;101163.19;4349763;32;33382;-85
2021/10/10 06:23:05;;;;;;;15.85;8.70;;;;;;;10.45;56.67;101161.31;4362309;32;33547;-85
2021/10/10 06:25:32;;;;;;;16.23;9.00;;;;;;;10.24;58.13;101167.50;4349394;32;33968;-83
2021/10/10 06:28:00;;;;;;;21.33;8.35;;;;;;;10.58;56.77;101162.06;4362152;32;33590;-85
2021/10/10 06:30:28;;;;;;;16.25;8.55;;;;;;;10.58;56.50;101164.69;4361811;32;33999;-85
2021/10/10 06:32:57;;;;;;;18.10;8.38;;;;;;;10.65;56.74;101168.94;4363619;32;33876;-84
2021/10/10 06:35:25;;;;;;;14.90;8.25;;;;;;;10.42;56.72;101167.41;4359869;32;34283;-84
2021/10/10 06:37:54;;;;;;;17.67;8.98;;;;;;;10.33;58.34;101165.72;4365675;32;34260;-85
2021/10/10 06:40:22;;;;;;;14.18;7.70;;;;;;;10.33;58.95;101162.22;4337902;32;33020;-85
2021/10/10 06:42:50;;;;;;;18.27;9.02;;;;;;;10.56;57.54;101159.50;4362563;32;33600;-85
2021/10/10 06:45:20;;;;;;;17.48;8.38;;;;;;;10.80;55.72;101163.63;4336920;32;35914;-84
2021/10/10 06:47:47;;;;;;;14.77;8.38;;;;;;;10.89;54.51;101162.69;4349486;32;33233;-85
2021/10/10 06:50:15;;;;;;;17.42;9.02;;;;;;;10.59;56.09;101162.06;4361854;32;32870;-85
2021/10/10 06:52:43;;;;;;;18.02;8.32;;;;;;;10.19;55.48;101159.72;4362022;32;33439;-83
2021/10/10 06:55:11;;;;;;;15.70;8.77;;;;;;;10.36;55.12;101176.13;4349560;32;33933;-85
2021/10/10 06:57:38;;;;;;;18.45;8.43;;;;;;;10.54;56.20;101169.03;4349630;32;34419;-84
2021/10/10 07:00:08;;;;;;;16.87;8.27;;;;;;;10.43;57.87;101176.09;4349316;32;32816;-85
2021/10/10 07:02:41;;;;;;;18.23;8.48;;;;;;;10.73;57.14;101175.00;4349567;32;32700;-84
2021/10/10 07:05:11;;;;;;;18.83;9.13;;;;;;;10.44;57.22;101181.28;4362433;32;34487;-84
2021/10/10 07:07:39;;;;;;;17.10;8.35;;;;;;;10.62;56.22;101182.91;4361077;32;34154;-85
2021/10/10 07:10:08;;;;;;;17.95;9.00;;;;;;;10.71;56.00;101174.12;4349276;32;33445;-84
2021/10/10 07:12:37;;;;;;;18.27;8.80;;;;;;;10.44;56.28;101172.63;4349160;32;33579;-85
2021/10/10 07:15:10;;;;;;;16.35;8.65;;;;;;;10.41;56.40;101175.22;4361095;32;34475;-85
2021/10/10 07:17:39;;;;;;;20.12;8.95;;;;;;;10.86;55.26;101178.34;4349088;32;33212;-84
2021/10/10 07:20:11;;;;;;;16.37;8.60;;;;;;;10.92;56.51;101183.50;4361643;32;33306;-84
2021/10/10 07:22:57;;;;;;;16.12;8.45;;;;;;;10.65;58.26;101176.78;4349190;32;32927;-85
2021/10/10 07:25:24;;;;;;;16.17;9.07;;;;;;;10.75;57.67;101191.47;4348920;32;33722;-85
2021/10/10 07:27:53;;;;;;;16.87;8.15;;;;;;;10.92;56.48;101187.88;4361436;32;33054;-84
2021/10/10 07:30:20;;;;;;;15.27;9.07;;;;;;;10.90;56.62;101185.25;4348918;32;33506;-85
2021/10/10 07:32:48;;;;;;;17.92;8.48;;;;;;;10.84;57.56;101185.31;4348829;32;33432;-84
2021/10/10 07:35:16;;;;;;;18.27;9.43;;;;;;;11.08;54.52;101179.00;4361117;32;33828;-85
2021/10/10 07:37:44;;;;;;;18.65;9.27;;;;;;;10.98;57.36;101183.47;4361288;32;33745;-85
2021/10/10 07:40:12;;;;;;;14.87;9.02;;;;;;;11.28;55.52;101196.19;4361262;32;32548;-85
2021/10/10 07:42:40;;;;;;;16.58;9.55;;;;;;;11.06;57.29;101192.94;4348699;32;32422;-84
2021/10/10 07:45:11;;;;;;;17.60;8.68;;;;;;;11.03;59.29;101188.63;4348782;32;33563;-85
2021/10/10 07:50:10;;;;;;;18.37;8.35;;;;;;;11.15;59.52;101185.03;4361790;32;33021;-85
2021/10/10 07:52:38;;;;;;;16.48;9.20;;;;;;;11.09;60.78;101198.12;4349207;32;33912;-84
2021/10/10 07:55:07;;;;;;;19.98;10.73;;;;;;;11.13;59.99;101192.00;4361854;32;33974;-84
2021/10/10 07:57:36;;;;;;;19.08;8.95;;;;;;;11.32;59.62;101187.47;4361689;32;34219;-84
2021/10/10 08:00:05;;;;;;;17.23;9.70;;;;;;;11.16;60.84;101190.22;4349457;32;33517;-83
2021/10/10 08:02:54;;;;;;;20.17;9.90;;;;;;;11.53;59.60;101191.56;4349230;32;33082;-85
2021/10/10 08:05:25;;;;;;;15.77;8.95;;;;;;;11.32;60.94;101193.53;4361201;32;34572;-85
2021/10/10 08:07:54;;;;;;;17.35;9.38;;;;;;;11.37;61.04;101185.66;4348780;32;33123;-85
2021/10/10 08:10:23;;;;;;;18.25;10.43;;;;;;;11.79;59.62;101183.44;4348457;32;34201;-85
2021/10/10 08:12:51;;;;;;;17.20;10.32;;;;;;;11.90;58.84;101185.00;4361207;32;34054;-85
2021/10/10 08:15:19;;;;;;;18.12;8.85;;;;;;;11.67;57.98;101184.44;4348325;32;34485;-85
2021/10/10 08:17:47;;;;;;;20.58;9.55;;;;;;;11.92;56.65;101178.88;4361102;32;33215;-85
2021/10/10 08:20:15;;;;;;;17.45;9.52;;;;;;;12.16;54.11;101180.31;4348549;32;34663;-84
2021/10/10 08:22:45;;;;;;;20.12;9.60;;;;;;;11.91;55.56;101182.37;4348805;32;34063;-85
2021/10/10 08:25:14;;;;;;;15.38;9.00;;;;;;;12.17;55.00;101184.66;4361275;32;34388;-86
2021/10/10 08:27:44;;;;;;;17.35;8.68;;;;;;;11.64;54.02;101178.38;4347528;32;33335;-85
2021/10/10 08:30:14;;;;;;;15.88;9.27;;;;;;;11.83;53.92;101173.78;4360512;32;32387;-85
2021/10/10 08:32:45;;;;;;;20.60;9.02;;;;;;;12.17;54.19;101169.00;4361133;32;33548;-85
2021/10/10 08:35:14;;;;;;;19.80;9.18;;;;;;;12.15;52.96;101167.28;4348708;32;33968;-86
2021/10/10 08:37:43;;;;;;;16.00;8.75;;;;;;;12.36;52.41;101159.13;4361081;32;34360;-84
2021/10/10 08:40:14;;;;;;;19.27;9.43;;;;;;;12.56;50.88;101154.47;4361138;32;34400;-84
2021/10/10 08:42:53;;;;;;;17.77;9.52;;;;;;;12.18;53.10;101149.81;4360753;32;34290;-85
2021/10/10 08:45:29;;;;;;;17.98;9.57;;;;;;;12.45;52.18;101152.88;4361093;32;34235;-86
2021/10/10 08:47:56;;;;;;;18.98;10.05;;;;;;;12.27;52.48;101156.66;4355846;32;185964;-85
2021/10/10 08:50:27;;;;;;;18.33;8.80;;;;;;;12.47;51.38;101155.47;4360991;32;33577;-85
2021/10/10 08:52:58;;;;;;;19.50;9.20;;;;;;;12.55;50.27;101156.22;4360735;32;33532;-85
2021/10/10 08:55:28;;;;;;;16.05;9.40;;;;;;;12.30;51.95;101159.22;4349058;32;34414;-85
2021/10/10 08:57:57;;;;;;;16.27;8.35;;;;;;;12.65;51.88;101155.16;4360588;32;33406;-85
2021/10/10 09:00:36;;;;;;;18.80;9.52;;;;;;;12.73;51.63;101152.41;4361090;32;33825;-85
2021/10/10 09:03:12;;;;;;;19.35;9.52;;;;;;;12.76;52.14;101151.50;4360761;32;34720;-85
2021/10/10 09:05:49;;;;;;;16.60;8.35;;;;;;;12.73;51.69;101162.03;4349572;32;33320;-85
2021/10/10 09:08:19;;;;;;;16.55;8.57;;;;;;;12.56;50.55;101155.31;4360993;32;34982;-83
2021/10/10 09:10:58;;;;;;;19.80;9.05;;;;;;;12.69;50.72;101159.44;4360476;32;32715;-85
2021/10/10 09:13:35;;;;;;;17.73;9.30;;;;;;;12.84;49.95;101152.22;4361103;32;34686;-84
2021/10/10 09:16:05;;;;;;;15.63;9.38;;;;;;;12.66;51.86;101153.44;4360657;32;34157;-84
2021/10/10 09:18:39;;;;;;;20.35;9.70;;;;;;;12.80;52.60;101153.19;4348793;32;32692;-84
2021/10/10 09:21:19;;;;;;;18.45;8.95;;;;;;;12.94;50.11;101145.09;4360629;32;32991;-85
2021/10/10 09:23:49;;;;;;;18.37;9.07;;;;;;;13.25;50.56;101139.28;4360635;32;32919;-83
2021/10/10 09:26:20;;;;;;;17.60;9.40;;;;;;;13.21;50.00;101148.94;4347995;32;34053;-84
2021/10/10 09:28:48;;;;;;;19.23;9.00;;;;;;;13.25;50.06;101147.12;4348132;32;33056;-85
2021/10/10 09:31:16;;;;;;;15.60;8.77;;;;;;;13.27;50.59;101140.97;4348087;32;33192;-84
2021/10/10 09:33:57;;;;;;;15.27;8.02;;;;;;;13.20;49.63;101141.97;4348491;32;34630;-85
2021/10/10 09:36:28;;;;;;;20.33;9.80;;;;;;;13.07;50.14;101140.47;4361014;32;34832;-85
2021/10/10 09:39:10;;;;;;;21.35;9.50;;;;;;;13.23;51.21;101141.94;4354732;32;33497;-85
2021/10/10 09:41:58;;;;;;;18.05;9.70;;;;;;;13.34;49.64;101141.72;4347285;32;32848;-84
2021/10/10 09:44:35;;;;;;;19.17;8.95;;;;;;;13.50;48.60;101139.69;4375555;32;34103;-83
2021/10/10 09:47:03;;;;;;;19.55;9.75;;;;;;;13.41;47.92;101145.09;4350367;32;34319;-85
2021/10/10 09:49:33;;;;;;;17.12;9.48;;;;;;;13.20;50.01;101141.97;4362366;32;33516;-84
2021/10/10 09:52:07;;;;;;;19.17;10.27;;;;;;;13.33;48.11;101138.22;4350001;32;34374;-85
2021/10/10 09:54:49;;;;;;;18.37;9.10;;;;;;;13.56;47.83;101141.28;4362227;32;32927;-85
2021/10/10 09:57:17;;;;;;;17.92;9.32;;;;;;;13.06;48.32;101157.94;4362318;32;33772;-85
2021/10/10 09:59:46;;;;;;;15.02;9.75;;;;;;;12.96;48.81;101145.91;4362380;32;34715;-85
2021/10/10 10:02:15;;;;;;;17.42;10.07;;;;;;;13.31;49.14;101149.63;4350059;32;33534;-84
2021/10/10 10:04:48;;;;;;;16.95;10.02;;;;;;;13.28;49.07;101141.81;4362414;32;33558;-84
2021/10/10 10:07:21;;;;;;;20.40;9.75;;;;;;;13.58;49.13;101148.22;4349973;32;33700;-84
2021/10/10 10:09:50;;;;;;;18.60;9.80;;;;;;;13.50;49.47;101150.16;4349512;32;33333;-85
2021/10/10 10:12:22;;;;;;;16.62;10.32;;;;;;;13.46;49.68;101149.34;4362333;32;33696;-85
2021/10/10 10:14:53;;;;;;;19.10;9.90;;;;;;;13.50;49.40;101158.84;4337639;32;33195;-86
2021/10/10 10:17:25;;;;;;;15.75;9.38;;;;;;;13.13;49.72;101161.31;4362286;32;33362;-84
2021/10/10 10:19:56;;;;;;;19.80;9.80;;;;;;;13.03;50.13;101165.84;4362342;32;35035;-84
2021/10/10 10:22:26;;;;;;;17.67;10.18;;;;;;;13.20;48.60;101149.81;4362298;32;32864;-84
2021/10/10 10:24:55;;;;;;;;;;;;;;;13.28;48.92;101154.91;4362088;32;32923;-86
2021/10/10 10:27:23;;;;;;;18.27;9.27;;;;;;;13.46;48.84;101154.56;4349746;32;32986;-85
2021/10/10 10:29:53;;;;;;;16.27;9.23;;;;;;;13.44;49.38;101145.91;4349445;32;34016;-84
2021/10/10 10:32:26;;;;;;;18.55;9.80;;;;;;;13.35;49.14;101141.66;4362626;32;34477;-85
2021/10/10 10:35:11;;;;;;;18.37;9.32;;;;;;;13.45;49.41;101139.75;4361979;32;34279;-85
2021/10/10 10:37:43;;;;;;;16.45;9.75;;;;;;;13.53;49.24;101148.34;4362134;32;33416;-85
2021/10/10 10:40:27;;;;;;;19.27;10.13;;;;;;;13.51;48.45;101151.87;4362002;32;33845;-84
2021/10/10 10:42:56;;;;;;;20.15;9.63;;;;;;;13.60;48.36;101135.97;4362161;32;33606;-85
2021/10/10 10:45:29;;;;;;;20.77;10.05;;;;;;;13.66;48.94;101127.97;4361996;32;32691;-86
2021/10/10 10:48:03;;;;;;;15.73;9.20;;;;;;;13.67;49.47;101123.59;4349897;32;33668;-84
2021/10/10 10:50:37;;;;;;;20.80;9.48;;;;;;;13.85;48.89;101131.06;4361224;32;34190;-85
2021/10/10 10:53:14;;;;;;;17.20;10.07;;;;;;;13.81;49.01;101128.53;4362114;32;33973;-85
2021/10/10 10:55:53;;;;;;;19.73;10.23;;;;;;;13.60;48.33;101127.25;4361772;32;33071;-85
2021/10/10 10:58:22;;;;;;;20.02;9.73;;;;;;;13.66;48.30;101135.81;4349483;32;33484;-84
2021/10/10 11:00:51;;;;;;;19.35;10.15;;;;;;;13.66;48.07;101134.97;4349224;32;33295;-85
2021/10/10 11:03:22;;;;;;;16.60;9.57;;;;;;;13.57;48.59;101133.41;4362103;32;33347;-84
2021/10/10 11:05:52;;;;;;;17.08;10.07;;;;;;;13.70;48.08;101132.25;4374014;32;34408;-85
2021/10/10 11:08:26;;;;;;;20.83;9.88;;;;;;;13.76;47.71;101133.88;4349416;32;34378;-84
2021/10/10 11:11:03;;;;;;;19.30;9.77;;;;;;;13.74;48.10;101126.94;4373775;32;33674;-85
2021/10/10 11:13:34;;;;;;;17.60;9.90;;;;;;;13.90;47.73;101127.47;4361593;32;33148;-85
2021/10/10 11:16:11;;;;;;;18.60;9.73;;;;;;;14.15;47.70;101125.16;4361525;32;34166;-85
2021/10/10 11:18:51;;;;;;;18.87;9.73;;;;;;;14.01;48.11;101121.09;4375228;32;34536;-85
2021/10/10 11:21:25;;;;;;;17.12;9.23;;;;;;;14.11;47.07;101118.25;4337049;32;32426;-85
2021/10/10 11:23:56;;;;;;;17.45;9.25;;;;;;;14.07;47.39;101117.47;4361700;32;33598;-84
2021/10/10 11:26:28;;;;;;;19.35;9.85;;;;;;;14.06;47.36;101109.62;4361855;32;34108;-86
2021/10/10 11:29:01;;;;;;;18.17;9.40;;;;;;;14.14;47.01;101110.31;4361463;32;33594;-85
2021/10/10 11:31:29;;;;;;;15.32;9.60;;;;;;;13.96;47.22;101112.47;4361669;32;33064;-84
2021/10/10 11:34:02;;;;;;;21.55;9.73;;;;;;;14.05;46.57;101103.53;4349517;32;32932;-85